EIN626 EIDW-ENGM
Flight info
| Callsign | EIN626 |
|---|---|
| Flight time | 1h 51m |
| Altitude | 37000 |
| Route | ROTEV3J ROTEV DCT GOTNA DCT ALOTI DCT PIPEX M609 RIPAM |
| Aircraft | A320/M-SDE3FGHIRWY/LB1 |
Departure
| Time | 2026-05-06 10:05 |
|---|---|
| Airport | Dublin Airport (EIDW) |
Arrival
| Time | 2026-05-06 11:56 |
|---|---|
| Airport | Oslo-Gardermoen International Airport (ENGM) |
| Time | Latitude | Longitude | Altitude | Speed | Heading |
|---|---|---|---|---|---|
| 2026-05-06 09:41 | 53.42661 | -6.24697 | 248 ft | 0 kts | 148° |
| 2026-05-06 09:56 | 53.42667 | -6.24704 | 249 ft | 2 kts | 147° |
| 2026-05-06 09:56 | 53.42680 | -6.24718 | 249 ft | 2 kts | 148° |
| 2026-05-06 09:56 | 53.42693 | -6.24732 | 249 ft | 2 kts | 147° |
| 2026-05-06 09:56 | 53.42704 | -6.24744 | 249 ft | 1 kts | 172° |
| 2026-05-06 09:57 | 53.42718 | -6.24737 | 249 ft | 2 kts | 233° |
| 2026-05-06 09:57 | 53.42720 | -6.24731 | 249 ft | 0 kts | 246° |
| 2026-05-06 09:57 | 53.42708 | -6.24768 | 249 ft | 5 kts | 239° |
| 2026-05-06 09:57 | 53.42696 | -6.24798 | 249 ft | 0 kts | 233° |
| 2026-05-06 09:59 | 53.42692 | -6.24805 | 249 ft | 2 kts | 234° |
| 2026-05-06 09:59 | 53.42676 | -6.24844 | 249 ft | 5 kts | 236° |
| 2026-05-06 09:59 | 53.42678 | -6.24927 | 249 ft | 9 kts | 309° |
| 2026-05-06 10:00 | 53.42747 | -6.25010 | 249 ft | 13 kts | 327° |
| 2026-05-06 10:00 | 53.42794 | -6.25159 | 249 ft | 15 kts | 276° |
| 2026-05-06 10:00 | 53.42863 | -6.25293 | 249 ft | 15 kts | 337° |
| 2026-05-06 10:00 | 53.42962 | -6.25364 | 249 ft | 14 kts | 336° |
| 2026-05-06 10:01 | 53.43056 | -6.25433 | 249 ft | 14 kts | 336° |
| 2026-05-06 10:01 | 53.43152 | -6.25503 | 249 ft | 14 kts | 336° |
| 2026-05-06 10:01 | 53.43249 | -6.25577 | 249 ft | 15 kts | 335° |
| 2026-05-06 10:01 | 53.43351 | -6.25648 | 249 ft | 14 kts | 344° |
| 2026-05-06 10:02 | 53.43409 | -6.25556 | 249 ft | 14 kts | 97° |
| 2026-05-06 10:02 | 53.43397 | -6.25378 | 249 ft | 15 kts | 95° |
| 2026-05-06 10:02 | 53.43388 | -6.25185 | 249 ft | 16 kts | 95° |
| 2026-05-06 10:02 | 53.43378 | -6.24986 | 249 ft | 17 kts | 95° |
| 2026-05-06 10:03 | 53.43369 | -6.24780 | 249 ft | 17 kts | 94° |
| 2026-05-06 10:03 | 53.43361 | -6.24585 | 249 ft | 11 kts | 64° |
| 2026-05-06 10:03 | 53.43441 | -6.24568 | 249 ft | 13 kts | 339° |
| 2026-05-06 10:03 | 53.43521 | -6.24627 | 249 ft | 12 kts | 297° |
| 2026-05-06 10:04 | 53.43531 | -6.24696 | 249 ft | 0 kts | 276° |
| 2026-05-06 10:04 | 53.43533 | -6.24734 | 249 ft | 7 kts | 276° |
| 2026-05-06 10:04 | 53.43543 | -6.24914 | 249 ft | 29 kts | 276° |
| 2026-05-06 10:05 | 53.43590 | -6.25767 | 249 ft | 107 kts | 275° |
| 2026-05-06 10:05 | 53.43685 | -6.27449 | 327 ft | 161 kts | 276° |
| 2026-05-06 10:05 | 53.43796 | -6.29427 | 763 ft | 178 kts | 276° |
| 2026-05-06 10:05 | 53.43960 | -6.31534 | 1397 ft | 190 kts | 284° |
| 2026-05-06 10:06 | 53.44506 | -6.33582 | 2091 ft | 201 kts | 307° |
| 2026-05-06 10:06 | 53.45623 | -6.35114 | 2738 ft | 215 kts | 334° |
| 2026-05-06 10:06 | 53.47072 | -6.35745 | 3620 ft | 221 kts | 358° |
| 2026-05-06 10:06 | 53.48593 | -6.35530 | 4560 ft | 224 kts | 6° |
| 2026-05-06 10:07 | 53.50150 | -6.35227 | 5488 ft | 227 kts | 4° |
| 2026-05-06 10:07 | 53.51734 | -6.35009 | 6404 ft | 231 kts | 2° |
| 2026-05-06 10:07 | 53.53337 | -6.34737 | 7205 ft | 236 kts | 7° |
| 2026-05-06 10:07 | 53.55013 | -6.34314 | 7760 ft | 252 kts | 8° |
| 2026-05-06 10:08 | 53.56810 | -6.33841 | 8289 ft | 269 kts | 9° |
| 2026-05-06 10:08 | 53.58710 | -6.33341 | 8795 ft | 274 kts | 9° |
| 2026-05-06 10:08 | 53.60625 | -6.32841 | 9040 ft | 275 kts | 9° |
| 2026-05-06 10:08 | 53.62535 | -6.32345 | 9050 ft | 275 kts | 9° |
| 2026-05-06 10:09 | 53.64465 | -6.31847 | 9054 ft | 274 kts | 9° |
| 2026-05-06 10:09 | 53.66368 | -6.31319 | 9055 ft | 273 kts | 12° |
| 2026-05-06 10:09 | 53.68230 | -6.30573 | 9182 ft | 279 kts | 15° |
| 2026-05-06 10:09 | 53.70126 | -6.29722 | 9937 ft | 283 kts | 15° |
| 2026-05-06 10:10 | 53.71985 | -6.28874 | 10787 ft | 285 kts | 15° |
| 2026-05-06 10:10 | 53.73940 | -6.27982 | 11383 ft | 297 kts | 16° |
| 2026-05-06 10:10 | 53.75914 | -6.26905 | 12139 ft | 303 kts | 20° |
| 2026-05-06 10:10 | 53.77866 | -6.25552 | 12920 ft | 307 kts | 23° |
| 2026-05-06 10:11 | 53.79830 | -6.24082 | 13664 ft | 312 kts | 24° |
| 2026-05-06 10:11 | 53.81804 | -6.22586 | 14372 ft | 317 kts | 23° |
| 2026-05-06 10:11 | 53.83836 | -6.21045 | 15062 ft | 321 kts | 23° |
| 2026-05-06 10:11 | 53.85878 | -6.19498 | 15761 ft | 323 kts | 22° |
| 2026-05-06 10:12 | 53.87935 | -6.17942 | 16451 ft | 326 kts | 22° |
| 2026-05-06 10:12 | 53.89980 | -6.16395 | 17121 ft | 328 kts | 22° |
| 2026-05-06 10:12 | 53.92066 | -6.14818 | 17796 ft | 331 kts | 22° |
| 2026-05-06 10:12 | 53.94178 | -6.13221 | 18441 ft | 335 kts | 22° |
| 2026-05-06 10:13 | 53.96315 | -6.11601 | 19068 ft | 338 kts | 22° |
| 2026-05-06 10:13 | 53.98444 | -6.09985 | 19673 ft | 341 kts | 21° |
| 2026-05-06 10:13 | 54.00637 | -6.08320 | 20265 ft | 344 kts | 22° |
| 2026-05-06 10:13 | 54.02807 | -6.06667 | 20829 ft | 348 kts | 22° |
| 2026-05-06 10:14 | 54.05024 | -6.04909 | 21402 ft | 352 kts | 23° |
| 2026-05-06 10:14 | 54.07230 | -6.03104 | 21961 ft | 355 kts | 23° |
| 2026-05-06 10:14 | 54.09441 | -6.01286 | 22456 ft | 360 kts | 23° |
| 2026-05-06 10:14 | 54.11729 | -5.99405 | 22945 ft | 364 kts | 23° |
| 2026-05-06 10:15 | 54.14017 | -5.97525 | 23458 ft | 368 kts | 23° |
| 2026-05-06 10:15 | 54.16321 | -5.95632 | 23951 ft | 371 kts | 23° |
| 2026-05-06 10:15 | 54.18644 | -5.93724 | 24353 ft | 374 kts | 23° |
| 2026-05-06 10:15 | 54.20996 | -5.91790 | 24746 ft | 377 kts | 23° |
| 2026-05-06 10:16 | 54.23323 | -5.89874 | 25134 ft | 379 kts | 23° |
| 2026-05-06 10:16 | 54.25718 | -5.87901 | 25522 ft | 382 kts | 23° |
| 2026-05-06 10:16 | 54.27815 | -5.86171 | 25851 ft | 385 kts | 23° |
| 2026-05-06 10:16 | 54.29738 | -5.84579 | 27183 ft | 387 kts | 23° |
| 2026-05-06 10:17 | 54.32161 | -5.82575 | 27504 ft | 390 kts | 23° |
| 2026-05-06 10:17 | 54.34606 | -5.80551 | 27816 ft | 393 kts | 23° |
| 2026-05-06 10:17 | 54.37038 | -5.78534 | 28202 ft | 395 kts | 23° |
| 2026-05-06 10:17 | 54.39520 | -5.76474 | 28601 ft | 398 kts | 23° |
| 2026-05-06 10:18 | 54.42012 | -5.74400 | 28990 ft | 400 kts | 23° |
| 2026-05-06 10:18 | 54.44534 | -5.72300 | 29365 ft | 402 kts | 23° |
| 2026-05-06 10:18 | 54.47045 | -5.70207 | 29754 ft | 405 kts | 23° |
| 2026-05-06 10:18 | 54.49577 | -5.68092 | 30156 ft | 408 kts | 23° |
| 2026-05-06 10:19 | 54.52116 | -5.65969 | 30563 ft | 410 kts | 23° |
| 2026-05-06 10:19 | 54.54659 | -5.63708 | 30961 ft | 414 kts | 27° |
| 2026-05-06 10:19 | 54.57070 | -5.61078 | 31331 ft | 418 kts | 32° |
| 2026-05-06 10:19 | 54.59372 | -5.58004 | 31697 ft | 421 kts | 38° |
| 2026-05-06 10:20 | 54.61507 | -5.54532 | 32055 ft | 425 kts | 44° |
| 2026-05-06 10:20 | 54.63458 | -5.50673 | 32402 ft | 428 kts | 50° |
| 2026-05-06 10:20 | 54.65266 | -5.46560 | 32701 ft | 431 kts | 51° |
| 2026-05-06 10:20 | 54.67027 | -5.42420 | 32967 ft | 434 kts | 52° |
| 2026-05-06 10:21 | 54.68813 | -5.38199 | 33248 ft | 436 kts | 51° |
| 2026-05-06 10:21 | 54.70605 | -5.33970 | 33530 ft | 438 kts | 52° |
| 2026-05-06 10:21 | 54.72409 | -5.29719 | 33792 ft | 440 kts | 52° |
| 2026-05-06 10:21 | 54.74223 | -5.25449 | 34046 ft | 442 kts | 52° |
| 2026-05-06 10:22 | 54.76030 | -5.21194 | 34296 ft | 444 kts | 52° |
| 2026-05-06 10:22 | 54.77855 | -5.16895 | 34540 ft | 446 kts | 52° |
| 2026-05-06 10:22 | 54.79695 | -5.12551 | 34762 ft | 447 kts | 52° |
| 2026-05-06 10:22 | 54.81540 | -5.08195 | 34980 ft | 449 kts | 52° |
| 2026-05-06 10:23 | 54.83382 | -5.03836 | 35202 ft | 451 kts | 52° |
| 2026-05-06 10:23 | 54.85230 | -4.99453 | 35410 ft | 452 kts | 52° |
| 2026-05-06 10:23 | 54.87069 | -4.95089 | 35580 ft | 454 kts | 52° |
| 2026-05-06 10:23 | 54.88938 | -4.90648 | 35752 ft | 456 kts | 52° |
| 2026-05-06 10:24 | 54.90802 | -4.86209 | 35922 ft | 457 kts | 52° |
| 2026-05-06 10:24 | 54.92656 | -4.81785 | 36086 ft | 458 kts | 52° |
| 2026-05-06 10:24 | 54.94526 | -4.77315 | 36225 ft | 459 kts | 52° |
| 2026-05-06 10:24 | 54.96401 | -4.72822 | 36370 ft | 459 kts | 52° |
| 2026-05-06 10:25 | 54.98274 | -4.68326 | 36503 ft | 459 kts | 52° |
| 2026-05-06 10:25 | 55.00146 | -4.63825 | 36618 ft | 459 kts | 52° |
| 2026-05-06 10:25 | 55.03867 | -4.54853 | 36816 ft | 461 kts | 52° |
| 2026-05-06 10:26 | 55.07618 | -4.45770 | 37010 ft | 463 kts | 52° |
| 2026-05-06 10:26 | 55.11371 | -4.36654 | 37031 ft | 464 kts | 52° |
| 2026-05-06 10:27 | 55.15070 | -4.27635 | 37031 ft | 465 kts | 53° |
| 2026-05-06 10:27 | 55.18891 | -4.18285 | 37042 ft | 464 kts | 53° |
| 2026-05-06 10:28 | 55.22640 | -4.09077 | 37039 ft | 465 kts | 53° |
| 2026-05-06 10:28 | 55.26349 | -3.99933 | 37042 ft | 465 kts | 53° |
| 2026-05-06 10:29 | 55.30081 | -3.90695 | 37049 ft | 465 kts | 53° |
| 2026-05-06 10:29 | 55.33802 | -3.81453 | 37056 ft | 466 kts | 53° |
| 2026-05-06 10:30 | 55.37552 | -3.72103 | 37058 ft | 467 kts | 53° |
| 2026-05-06 10:30 | 55.41279 | -3.62776 | 37060 ft | 467 kts | 53° |
| 2026-05-06 10:31 | 55.45024 | -3.53369 | 37061 ft | 467 kts | 53° |
| 2026-05-06 10:31 | 55.48752 | -3.43969 | 37060 ft | 467 kts | 53° |
| 2026-05-06 10:32 | 55.52380 | -3.34785 | 37054 ft | 467 kts | 54° |
| 2026-05-06 10:32 | 55.56091 | -3.25355 | 37052 ft | 468 kts | 54° |
| 2026-05-06 10:33 | 55.59827 | -3.15825 | 37053 ft | 468 kts | 54° |
| 2026-05-06 10:33 | 55.63545 | -3.06303 | 37055 ft | 468 kts | 54° |
| 2026-05-06 10:34 | 55.67228 | -2.96835 | 37059 ft | 468 kts | 54° |
| 2026-05-06 10:34 | 55.70938 | -2.87261 | 37060 ft | 469 kts | 54° |
| 2026-05-06 10:35 | 55.74625 | -2.77706 | 37060 ft | 469 kts | 54° |
| 2026-05-06 10:35 | 55.78307 | -2.68131 | 37060 ft | 470 kts | 54° |
| 2026-05-06 10:36 | 55.82002 | -2.58480 | 37061 ft | 470 kts | 54° |
| 2026-05-06 10:36 | 55.85693 | -2.48803 | 37063 ft | 470 kts | 54° |
| 2026-05-06 10:37 | 55.89378 | -2.39103 | 37069 ft | 471 kts | 54° |
| 2026-05-06 10:37 | 55.92988 | -2.29568 | 37073 ft | 471 kts | 55° |
| 2026-05-06 10:38 | 55.96616 | -2.19942 | 37079 ft | 472 kts | 55° |
| 2026-05-06 10:38 | 56.00265 | -2.10222 | 37082 ft | 472 kts | 55° |
| 2026-05-06 10:39 | 56.03892 | -2.00522 | 37084 ft | 473 kts | 55° |
| 2026-05-06 10:39 | 56.07534 | -1.90746 | 37086 ft | 473 kts | 55° |
| 2026-05-06 10:40 | 56.11168 | -1.80951 | 37086 ft | 473 kts | 55° |
| 2026-05-06 10:40 | 56.14818 | -1.71072 | 37086 ft | 473 kts | 55° |
| 2026-05-06 10:41 | 56.18430 | -1.61259 | 37086 ft | 472 kts | 55° |
| 2026-05-06 10:41 | 56.22008 | -1.51494 | 37084 ft | 472 kts | 55° |
| 2026-05-06 10:42 | 56.25599 | -1.41655 | 37083 ft | 473 kts | 55° |
| 2026-05-06 10:42 | 56.29137 | -1.31927 | 37079 ft | 473 kts | 56° |
| 2026-05-06 10:43 | 56.32717 | -1.22039 | 37078 ft | 474 kts | 56° |
| 2026-05-06 10:44 | 56.38096 | -1.07109 | 37075 ft | 474 kts | 56° |
| 2026-05-06 10:44 | 56.41692 | -0.97078 | 37074 ft | 474 kts | 56° |
| 2026-05-06 10:45 | 56.45255 | -0.87110 | 37073 ft | 475 kts | 56° |
| 2026-05-06 10:45 | 56.48838 | -0.77036 | 37072 ft | 475 kts | 56° |
| 2026-05-06 10:46 | 56.52387 | -0.67014 | 37072 ft | 476 kts | 56° |
| 2026-05-06 10:46 | 56.55949 | -0.56906 | 37072 ft | 476 kts | 55° |
| 2026-05-06 10:47 | 56.59511 | -0.46760 | 37073 ft | 477 kts | 55° |
| 2026-05-06 10:47 | 56.63047 | -0.36646 | 37073 ft | 477 kts | 55° |
| 2026-05-06 10:48 | 56.66505 | -0.26717 | 37073 ft | 477 kts | 56° |
| 2026-05-06 10:48 | 56.70041 | -0.16520 | 37074 ft | 477 kts | 56° |
| 2026-05-06 10:49 | 56.73562 | -0.06320 | 37074 ft | 478 kts | 56° |
| 2026-05-06 10:49 | 56.77067 | 0.03876 | 37074 ft | 478 kts | 56° |
| 2026-05-06 10:50 | 56.80590 | 0.14168 | 37073 ft | 478 kts | 56° |
| 2026-05-06 10:50 | 56.84129 | 0.24547 | 37089 ft | 479 kts | 56° |
| 2026-05-06 10:51 | 56.87697 | 0.35050 | 37100 ft | 480 kts | 57° |
| 2026-05-06 10:51 | 56.91240 | 0.45538 | 37084 ft | 481 kts | 57° |
| 2026-05-06 10:52 | 56.94794 | 0.56110 | 37074 ft | 481 kts | 57° |
| 2026-05-06 10:52 | 56.98425 | 0.66959 | 37071 ft | 481 kts | 58° |
| 2026-05-06 10:53 | 57.02056 | 0.77853 | 37070 ft | 482 kts | 58° |
| 2026-05-06 10:53 | 57.05761 | 0.89019 | 37071 ft | 482 kts | 58° |
| 2026-05-06 10:54 | 57.09510 | 1.00368 | 37072 ft | 482 kts | 58° |
| 2026-05-06 10:54 | 57.13203 | 1.11603 | 37074 ft | 482 kts | 58° |
| 2026-05-06 10:55 | 57.16904 | 1.22919 | 37074 ft | 482 kts | 58° |
| 2026-05-06 10:55 | 57.20497 | 1.33951 | 37074 ft | 483 kts | 58° |
| 2026-05-06 10:56 | 57.24103 | 1.45079 | 37073 ft | 483 kts | 58° |
| 2026-05-06 10:56 | 57.27615 | 1.55967 | 37072 ft | 484 kts | 58° |
| 2026-05-06 10:57 | 57.31049 | 1.66659 | 37070 ft | 484 kts | 59° |
| 2026-05-06 10:57 | 57.34478 | 1.77395 | 37068 ft | 485 kts | 59° |
| 2026-05-06 10:58 | 57.37899 | 1.88154 | 37066 ft | 485 kts | 59° |
| 2026-05-06 10:58 | 57.41306 | 1.98904 | 37064 ft | 486 kts | 59° |
| 2026-05-06 10:59 | 57.44731 | 2.09761 | 37064 ft | 486 kts | 59° |
| 2026-05-06 10:59 | 57.48194 | 2.20793 | 37066 ft | 487 kts | 59° |
| 2026-05-06 11:00 | 57.51680 | 2.31951 | 37067 ft | 487 kts | 59° |
| 2026-05-06 11:00 | 57.55067 | 2.42842 | 37067 ft | 487 kts | 59° |
| 2026-05-06 11:01 | 57.58600 | 2.54270 | 37069 ft | 487 kts | 59° |
| 2026-05-06 11:01 | 57.62066 | 2.65534 | 37070 ft | 487 kts | 60° |
| 2026-05-06 11:02 | 57.65435 | 2.76527 | 37070 ft | 487 kts | 60° |
| 2026-05-06 11:02 | 57.68804 | 2.87574 | 37071 ft | 487 kts | 60° |
| 2026-05-06 11:03 | 57.72170 | 2.98657 | 37070 ft | 487 kts | 60° |
| 2026-05-06 11:03 | 57.75497 | 3.09658 | 37067 ft | 487 kts | 60° |
| 2026-05-06 11:04 | 57.78819 | 3.20702 | 37063 ft | 487 kts | 60° |
| 2026-05-06 11:04 | 57.82144 | 3.31813 | 37060 ft | 488 kts | 60° |
| 2026-05-06 11:05 | 57.85453 | 3.42927 | 37057 ft | 489 kts | 60° |
| 2026-05-06 11:05 | 57.88763 | 3.54104 | 37054 ft | 490 kts | 60° |
| 2026-05-06 11:06 | 57.91710 | 3.65577 | 37052 ft | 490 kts | 69° |
| 2026-05-06 11:06 | 57.94120 | 3.77531 | 37051 ft | 490 kts | 71° |
| 2026-05-06 11:07 | 57.96452 | 3.89519 | 37050 ft | 491 kts | 71° |
| 2026-05-06 11:07 | 57.98766 | 4.01417 | 37050 ft | 491 kts | 71° |
| 2026-05-06 11:08 | 58.01116 | 4.13534 | 37050 ft | 492 kts | 70° |
| 2026-05-06 11:08 | 58.03448 | 4.25610 | 37050 ft | 492 kts | 70° |
| 2026-05-06 11:09 | 58.05791 | 4.37802 | 37046 ft | 492 kts | 70° |
| 2026-05-06 11:09 | 58.08089 | 4.49838 | 37040 ft | 492 kts | 70° |
| 2026-05-06 11:10 | 58.10391 | 4.61965 | 37034 ft | 492 kts | 70° |
| 2026-05-06 11:10 | 58.12695 | 4.74180 | 37028 ft | 492 kts | 71° |
| 2026-05-06 11:11 | 58.14977 | 4.86354 | 37027 ft | 493 kts | 71° |
| 2026-05-06 11:11 | 58.17244 | 4.98532 | 37024 ft | 493 kts | 71° |
| 2026-05-06 11:12 | 58.19531 | 5.10895 | 37024 ft | 494 kts | 71° |
| 2026-05-06 11:12 | 58.21841 | 5.23463 | 37028 ft | 494 kts | 71° |
| 2026-05-06 11:13 | 58.24150 | 5.36110 | 37035 ft | 494 kts | 71° |
| 2026-05-06 11:13 | 58.26419 | 5.48617 | 37042 ft | 494 kts | 71° |
| 2026-05-06 11:14 | 58.28673 | 5.61125 | 37048 ft | 495 kts | 71° |
| 2026-05-06 11:14 | 58.30881 | 5.73457 | 37052 ft | 495 kts | 72° |
| 2026-05-06 11:15 | 58.33073 | 5.85792 | 37053 ft | 494 kts | 72° |
| 2026-05-06 11:15 | 58.35251 | 5.98129 | 37051 ft | 494 kts | 72° |
| 2026-05-06 11:16 | 58.37425 | 6.10525 | 37043 ft | 494 kts | 72° |
| 2026-05-06 11:16 | 58.39579 | 6.22896 | 37031 ft | 494 kts | 72° |
| 2026-05-06 11:17 | 58.41724 | 6.35290 | 37014 ft | 494 kts | 72° |
| 2026-05-06 11:17 | 58.43850 | 6.47660 | 37009 ft | 494 kts | 72° |
| 2026-05-06 11:18 | 58.45990 | 6.60198 | 37000 ft | 495 kts | 72° |
| 2026-05-06 11:18 | 58.48110 | 6.72704 | 36980 ft | 495 kts | 73° |
| 2026-05-06 11:19 | 58.50203 | 6.85139 | 36967 ft | 496 kts | 73° |
| 2026-05-06 11:19 | 58.52297 | 6.97672 | 36965 ft | 496 kts | 73° |
| 2026-05-06 11:20 | 58.54399 | 7.10313 | 36968 ft | 496 kts | 73° |
| 2026-05-06 11:20 | 58.56464 | 7.22836 | 36931 ft | 496 kts | 73° |
| 2026-05-06 11:21 | 58.58528 | 7.35443 | 36921 ft | 496 kts | 73° |
| 2026-05-06 11:21 | 58.60563 | 7.47966 | 36960 ft | 496 kts | 73° |
| 2026-05-06 11:22 | 58.62593 | 7.60551 | 36968 ft | 496 kts | 73° |
| 2026-05-06 11:22 | 58.64618 | 7.73191 | 36969 ft | 495 kts | 75° |
| 2026-05-06 11:23 | 58.66626 | 7.85821 | 36967 ft | 495 kts | 75° |
| 2026-05-06 11:23 | 58.68619 | 7.98455 | 36946 ft | 495 kts | 75° |
| 2026-05-06 11:24 | 58.70609 | 8.11155 | 36945 ft | 495 kts | 74° |
| 2026-05-06 11:24 | 58.72623 | 8.24092 | 36965 ft | 496 kts | 75° |
| 2026-05-06 11:25 | 58.74594 | 8.36863 | 36966 ft | 497 kts | 75° |
| 2026-05-06 11:25 | 58.76542 | 8.49593 | 36962 ft | 497 kts | 75° |
| 2026-05-06 11:26 | 58.78480 | 8.62356 | 36959 ft | 497 kts | 75° |
| 2026-05-06 11:26 | 58.80404 | 8.75131 | 36952 ft | 497 kts | 75° |
| 2026-05-06 11:27 | 58.82312 | 8.87890 | 36952 ft | 497 kts | 74° |
| 2026-05-06 11:27 | 58.85022 | 9.00145 | 36955 ft | 499 kts | 59° |
| 2026-05-06 11:28 | 58.89160 | 9.10835 | 36553 ft | 496 kts | 44° |
| 2026-05-06 11:28 | 58.91673 | 9.15345 | 35819 ft | 500 kts | 37° |
| 2026-05-06 11:28 | 58.94408 | 9.19559 | 35049 ft | 505 kts | 34° |
| 2026-05-06 11:28 | 58.97187 | 9.23689 | 34429 ft | 505 kts | 34° |
| 2026-05-06 11:29 | 58.99948 | 9.27817 | 34078 ft | 499 kts | 34° |
| 2026-05-06 11:29 | 59.02661 | 9.31934 | 33669 ft | 496 kts | 34° |
| 2026-05-06 11:29 | 59.05316 | 9.36013 | 33198 ft | 495 kts | 34° |
| 2026-05-06 11:29 | 59.08017 | 9.40194 | 32680 ft | 494 kts | 34° |
| 2026-05-06 11:30 | 59.10667 | 9.44318 | 32040 ft | 493 kts | 34° |
| 2026-05-06 11:30 | 59.13363 | 9.48526 | 31424 ft | 491 kts | 34° |
| 2026-05-06 11:30 | 59.15977 | 9.52612 | 30842 ft | 487 kts | 34° |
| 2026-05-06 11:30 | 59.18632 | 9.56687 | 30296 ft | 483 kts | 32° |
| 2026-05-06 11:31 | 59.21350 | 9.60397 | 29736 ft | 478 kts | 28° |
| 2026-05-06 11:31 | 59.24130 | 9.63969 | 29178 ft | 474 kts | 27° |
| 2026-05-06 11:31 | 59.26869 | 9.67438 | 28623 ft | 471 kts | 28° |
| 2026-05-06 11:31 | 59.29609 | 9.70929 | 28052 ft | 468 kts | 28° |
| 2026-05-06 11:32 | 59.32367 | 9.74172 | 27559 ft | 456 kts | 21° |
| 2026-05-06 11:32 | 59.35239 | 9.76536 | 27090 ft | 441 kts | 11° |
| 2026-05-06 11:32 | 59.38136 | 9.78244 | 26614 ft | 432 kts | 7° |
| 2026-05-06 11:32 | 59.40986 | 9.79756 | 26147 ft | 425 kts | 7° |
| 2026-05-06 11:33 | 59.43803 | 9.81239 | 25696 ft | 419 kts | 7° |
| 2026-05-06 11:33 | 59.46601 | 9.82740 | 25244 ft | 413 kts | 7° |
| 2026-05-06 11:33 | 59.49319 | 9.84227 | 24807 ft | 408 kts | 7° |
| 2026-05-06 11:33 | 59.52060 | 9.85747 | 24373 ft | 402 kts | 7° |
| 2026-05-06 11:34 | 59.54721 | 9.87235 | 23966 ft | 397 kts | 7° |
| 2026-05-06 11:34 | 59.57311 | 9.88690 | 23567 ft | 391 kts | 7° |
| 2026-05-06 11:34 | 59.59897 | 9.90146 | 23172 ft | 385 kts | 7° |
| 2026-05-06 11:34 | 59.62455 | 9.91588 | 22782 ft | 380 kts | 7° |
| 2026-05-06 11:35 | 59.64997 | 9.93018 | 22383 ft | 376 kts | 6° |
| 2026-05-06 11:35 | 59.67480 | 9.94410 | 21979 ft | 372 kts | 6° |
| 2026-05-06 11:35 | 59.69952 | 9.95787 | 21572 ft | 369 kts | 6° |
| 2026-05-06 11:35 | 59.72402 | 9.97150 | 21173 ft | 365 kts | 6° |
| 2026-05-06 11:36 | 59.74824 | 9.98504 | 20770 ft | 362 kts | 6° |
| 2026-05-06 11:36 | 59.77240 | 9.99868 | 20377 ft | 359 kts | 6° |
| 2026-05-06 11:36 | 59.79635 | 10.01216 | 19986 ft | 355 kts | 6° |
| 2026-05-06 11:36 | 59.81967 | 10.02526 | 19601 ft | 351 kts | 6° |
| 2026-05-06 11:37 | 59.84316 | 10.03857 | 19215 ft | 348 kts | 6° |
| 2026-05-06 11:37 | 59.86604 | 10.05144 | 18846 ft | 344 kts | 6° |
| 2026-05-06 11:37 | 59.88901 | 10.06442 | 18472 ft | 341 kts | 6° |
| 2026-05-06 11:37 | 59.91140 | 10.07709 | 18101 ft | 337 kts | 5° |
| 2026-05-06 11:38 | 59.93380 | 10.08986 | 17718 ft | 334 kts | 5° |
| 2026-05-06 11:38 | 59.95594 | 10.10245 | 17329 ft | 331 kts | 6° |
| 2026-05-06 11:38 | 59.97776 | 10.11487 | 16935 ft | 329 kts | 6° |
| 2026-05-06 11:38 | 59.99958 | 10.12740 | 16547 ft | 326 kts | 6° |
| 2026-05-06 11:39 | 60.02130 | 10.13987 | 16147 ft | 324 kts | 6° |
| 2026-05-06 11:39 | 60.04281 | 10.15227 | 15747 ft | 321 kts | 7° |
| 2026-05-06 11:39 | 60.06412 | 10.16454 | 15336 ft | 319 kts | 7° |
| 2026-05-06 11:39 | 60.08527 | 10.17670 | 14918 ft | 317 kts | 7° |
| 2026-05-06 11:40 | 60.10627 | 10.18880 | 14496 ft | 314 kts | 8° |
| 2026-05-06 11:40 | 60.12730 | 10.20099 | 14068 ft | 313 kts | 8° |
| 2026-05-06 11:40 | 60.14788 | 10.21296 | 13658 ft | 310 kts | 9° |
| 2026-05-06 11:40 | 60.16857 | 10.22496 | 13214 ft | 307 kts | 9° |
| 2026-05-06 11:41 | 60.18885 | 10.23670 | 12739 ft | 306 kts | 9° |
| 2026-05-06 11:41 | 60.20918 | 10.24850 | 12311 ft | 302 kts | 10° |
| 2026-05-06 11:41 | 60.22951 | 10.26031 | 11850 ft | 301 kts | 11° |
| 2026-05-06 11:41 | 60.24993 | 10.27218 | 11419 ft | 299 kts | 11° |
| 2026-05-06 11:42 | 60.26980 | 10.28376 | 11101 ft | 295 kts | 12° |
| 2026-05-06 11:42 | 60.28908 | 10.29510 | 10821 ft | 289 kts | 12° |
| 2026-05-06 11:42 | 60.30841 | 10.30645 | 10537 ft | 285 kts | 12° |
| 2026-05-06 11:42 | 60.32709 | 10.31821 | 10228 ft | 283 kts | 17° |
| 2026-05-06 11:43 | 60.34539 | 10.33320 | 9858 ft | 282 kts | 21° |
| 2026-05-06 11:43 | 60.36307 | 10.34913 | 9501 ft | 280 kts | 22° |
| 2026-05-06 11:43 | 60.38068 | 10.36525 | 9143 ft | 278 kts | 22° |
| 2026-05-06 11:44 | 60.41552 | 10.39710 | 8919 ft | 276 kts | 23° |
| 2026-05-06 11:44 | 60.43323 | 10.41324 | 8916 ft | 276 kts | 23° |
| 2026-05-06 11:44 | 60.45112 | 10.42952 | 8912 ft | 271 kts | 23° |
| 2026-05-06 11:44 | 60.46877 | 10.44291 | 8909 ft | 257 kts | 14° |
| 2026-05-06 11:45 | 60.48720 | 10.45098 | 8917 ft | 253 kts | 9° |
| 2026-05-06 11:45 | 60.50517 | 10.45713 | 8920 ft | 253 kts | 8° |
| 2026-05-06 11:45 | 60.52374 | 10.46328 | 8919 ft | 253 kts | 8° |
| 2026-05-06 11:45 | 60.54192 | 10.46996 | 8917 ft | 253 kts | 15° |
| 2026-05-06 11:46 | 60.55681 | 10.48832 | 8904 ft | 253 kts | 52° |
| 2026-05-06 11:46 | 60.56373 | 10.52054 | 8913 ft | 252 kts | 85° |
| 2026-05-06 11:46 | 60.56130 | 10.55549 | 8923 ft | 249 kts | 111° |
| 2026-05-06 11:46 | 60.55477 | 10.58998 | 8919 ft | 249 kts | 112° |
| 2026-05-06 11:47 | 60.54808 | 10.62560 | 8913 ft | 249 kts | 111° |
| 2026-05-06 11:47 | 60.54162 | 10.66092 | 8903 ft | 249 kts | 112° |
| 2026-05-06 11:47 | 60.53513 | 10.69703 | 8567 ft | 251 kts | 111° |
| 2026-05-06 11:47 | 60.52861 | 10.73369 | 8211 ft | 250 kts | 111° |
| 2026-05-06 11:48 | 60.52202 | 10.77094 | 7857 ft | 249 kts | 111° |
| 2026-05-06 11:48 | 60.51561 | 10.80721 | 7524 ft | 245 kts | 111° |
| 2026-05-06 11:48 | 60.50935 | 10.84255 | 7209 ft | 241 kts | 111° |
| 2026-05-06 11:48 | 60.50330 | 10.87675 | 6907 ft | 238 kts | 111° |
| 2026-05-06 11:49 | 60.49717 | 10.91113 | 6606 ft | 236 kts | 112° |
| 2026-05-06 11:49 | 60.49120 | 10.94455 | 6320 ft | 233 kts | 112° |
| 2026-05-06 11:49 | 60.48539 | 10.97703 | 6037 ft | 230 kts | 111° |
| 2026-05-06 11:49 | 60.47974 | 11.00857 | 5758 ft | 229 kts | 111° |
| 2026-05-06 11:50 | 60.47424 | 11.03933 | 5485 ft | 227 kts | 111° |
| 2026-05-06 11:50 | 60.46876 | 11.06934 | 5214 ft | 225 kts | 116° |
| 2026-05-06 11:50 | 60.46053 | 11.09605 | 4939 ft | 220 kts | 133° |
| 2026-05-06 11:50 | 60.44977 | 11.11832 | 4677 ft | 218 kts | 138° |
| 2026-05-06 11:51 | 60.43864 | 11.13966 | 4413 ft | 217 kts | 138° |
| 2026-05-06 11:51 | 60.42770 | 11.16061 | 4153 ft | 216 kts | 138° |
| 2026-05-06 11:51 | 60.41695 | 11.18139 | 3998 ft | 208 kts | 139° |
| 2026-05-06 11:51 | 60.40486 | 11.19515 | 3993 ft | 204 kts | 172° |
| 2026-05-06 11:52 | 60.39078 | 11.19412 | 3892 ft | 203 kts | 193° |
| 2026-05-06 11:52 | 60.37747 | 11.18656 | 3784 ft | 195 kts | 199° |
| 2026-05-06 11:52 | 60.36485 | 11.17811 | 3680 ft | 185 kts | 198° |
| 2026-05-06 11:52 | 60.35274 | 11.17040 | 3530 ft | 185 kts | 197° |
| 2026-05-06 11:53 | 60.34046 | 11.16303 | 3274 ft | 184 kts | 197° |
| 2026-05-06 11:53 | 60.32834 | 11.15601 | 3100 ft | 174 kts | 196° |
| 2026-05-06 11:53 | 60.31724 | 11.14970 | 2838 ft | 162 kts | 196° |
| 2026-05-06 11:53 | 60.30667 | 11.14371 | 2609 ft | 153 kts | 197° |
| 2026-05-06 11:54 | 60.29647 | 11.13789 | 2382 ft | 152 kts | 196° |
| 2026-05-06 11:54 | 60.28638 | 11.13211 | 2163 ft | 151 kts | 196° |
| 2026-05-06 11:54 | 60.27638 | 11.12638 | 1960 ft | 148 kts | 197° |
| 2026-05-06 11:54 | 60.26660 | 11.12077 | 1750 ft | 143 kts | 197° |
| 2026-05-06 11:55 | 60.25723 | 11.11539 | 1551 ft | 137 kts | 197° |
| 2026-05-06 11:55 | 60.24835 | 11.11029 | 1365 ft | 130 kts | 197° |
| 2026-05-06 11:55 | 60.23988 | 11.10542 | 1183 ft | 123 kts | 197° |
| 2026-05-06 11:55 | 60.23180 | 11.10074 | 1033 ft | 124 kts | 197° |
| 2026-05-06 11:56 | 60.22355 | 11.09599 | 863 ft | 123 kts | 197° |
| 2026-05-06 11:56 | 60.21533 | 11.09130 | 715 ft | 123 kts | 197° |
| 2026-05-06 11:56 | 60.20793 | 11.08693 | 687 ft | 78 kts | 193° |
| 2026-05-06 11:56 | 60.20375 | 11.08463 | 687 ft | 40 kts | 189° |
| 2026-05-06 11:57 | 60.20256 | 11.08589 | 687 ft | 16 kts | 107° |
| 2026-05-06 11:57 | 60.20244 | 11.08680 | 687 ft | 3 kts | 105° |
| 2026-05-06 11:57 | 60.20236 | 11.08733 | 687 ft | 4 kts | 106° |
| 2026-05-06 11:57 | 60.20223 | 11.08808 | 687 ft | 6 kts | 109° |
| 2026-05-06 11:58 | 60.20207 | 11.08906 | 687 ft | 8 kts | 110° |
| 2026-05-06 11:58 | 60.20188 | 11.09027 | 687 ft | 9 kts | 106° |
| 2026-05-06 11:58 | 60.20167 | 11.09172 | 687 ft | 11 kts | 106° |
| 2026-05-06 11:58 | 60.20143 | 11.09337 | 687 ft | 12 kts | 106° |
| 2026-05-06 11:59 | 60.20118 | 11.09511 | 687 ft | 13 kts | 105° |
| 2026-05-06 11:59 | 60.20093 | 11.09689 | 687 ft | 13 kts | 106° |
| 2026-05-06 11:59 | 60.20067 | 11.09874 | 687 ft | 13 kts | 106° |
| 2026-05-06 11:59 | 60.20039 | 11.10061 | 687 ft | 14 kts | 107° |
| 2026-05-06 12:00 | 60.20011 | 11.10251 | 687 ft | 14 kts | 106° |
| 2026-05-06 12:00 | 60.19984 | 11.10447 | 687 ft | 14 kts | 104° |
| 2026-05-06 12:00 | 60.19936 | 11.10600 | 687 ft | 13 kts | 175° |
| 2026-05-06 12:00 | 60.19846 | 11.10553 | 687 ft | 13 kts | 197° |
| 2026-05-06 12:01 | 60.19757 | 11.10500 | 687 ft | 13 kts | 196° |
| 2026-05-06 12:01 | 60.19683 | 11.10458 | 687 ft | 8 kts | 195° |
| 2026-05-06 12:01 | 60.19628 | 11.10421 | 687 ft | 8 kts | 216° |
| 2026-05-06 12:01 | 60.19625 | 11.10313 | 687 ft | 8 kts | 286° |
| 2026-05-06 12:02 | 60.19638 | 11.10226 | 687 ft | 3 kts | 286° |
| 2026-05-06 12:02 | 60.19640 | 11.10208 | 687 ft | 0 kts | 286° |
| 2026-05-06 12:02 | 60.19641 | 11.10206 | 687 ft | 0 kts | 285° |